sensor_id;sensor_type;location;lat;lon;timestamp;temperature;humidity
24468;DHT22;12634;50.852;5.676;2023-10-08T00:02:10;16.10;99.90
24468;DHT22;12634;50.852;5.676;2023-10-08T00:04:40;16.20;99.90
24468;DHT22;12634;50.852;5.676;2023-10-08T00:07:10;16.10;99.90
24468;DHT22;12634;50.852;5.676;2023-10-08T00:09:37;16.10;99.90
24468;DHT22;12634;50.852;5.676;2023-10-08T00:12:05;16.10;99.90
24468;DHT22;12634;50.852;5.676;2023-10-08T00:14:34;16.10;99.90
24468;DHT22;12634;50.852;5.676;2023-10-08T00:17:11;16.10;99.90
24468;DHT22;12634;50.852;5.676;2023-10-08T00:19:38;16.00;99.90
24468;DHT22;12634;50.852;5.676;2023-10-08T00:22:06;16.10;99.90
24468;DHT22;12634;50.852;5.676;2023-10-08T00:24:33;16.00;99.90
24468;DHT22;12634;50.852;5.676;2023-10-08T00:27:01;16.00;99.90
24468;DHT22;12634;50.852;5.676;2023-10-08T00:29:33;16.00;99.90
24468;DHT22;12634;50.852;5.676;2023-10-08T00:32:05;16.00;99.90
24468;DHT22;12634;50.852;5.676;2023-10-08T00:34:37;16.00;99.90
24468;DHT22;12634;50.852;5.676;2023-10-08T00:37:07;16.10;99.90
24468;DHT22;12634;50.852;5.676;2023-10-08T00:39:36;16.10;99.90
24468;DHT22;12634;50.852;5.676;2023-10-08T00:42:06;15.90;99.90
24468;DHT22;12634;50.852;5.676;2023-10-08T00:44:36;15.90;99.90
24468;DHT22;12634;50.852;5.676;2023-10-08T00:47:14;15.90;99.90
24468;DHT22;12634;50.852;5.676;2023-10-08T00:49:44;15.90;99.90
24468;DHT22;12634;50.852;5.676;2023-10-08T00:52:30;15.80;99.90
24468;DHT22;12634;50.852;5.676;2023-10-08T00:55:05;15.90;99.90
24468;DHT22;12634;50.852;5.676;2023-10-08T00:57:47;15.80;99.90
24468;DHT22;12634;50.852;5.676;2023-10-08T01:00:20;15.90;99.90
24468;DHT22;12634;50.852;5.676;2023-10-08T01:02:49;16.00;99.90
24468;DHT22;12634;50.852;5.676;2023-10-08T01:05:25;15.90;99.90
24468;DHT22;12634;50.852;5.676;2023-10-08T01:08:08;15.90;99.90
24468;DHT22;12634;50.852;5.676;2023-10-08T01:10:38;15.90;99.90
24468;DHT22;12634;50.852;5.676;2023-10-08T01:13:09;15.80;99.90
24468;DHT22;12634;50.852;5.676;2023-10-08T01:15:42;15.80;99.90
24468;DHT22;12634;50.852;5.676;2023-10-08T01:18:10;15.70;99.90
24468;DHT22;12634;50.852;5.676;2023-10-08T01:20:43;15.60;99.90
24468;DHT22;12634;50.852;5.676;2023-10-08T01:23:19;15.50;99.90
24468;DHT22;12634;50.852;5.676;2023-10-08T01:25:49;15.60;99.90
24468;DHT22;12634;50.852;5.676;2023-10-08T01:28:18;15.70;99.90
24468;DHT22;12634;50.852;5.676;2023-10-08T01:30:52;15.70;99.90
24468;DHT22;12634;50.852;5.676;2023-10-08T01:33:20;15.70;99.90
24468;DHT22;12634;50.852;5.676;2023-10-08T01:35:54;15.70;99.90
24468;DHT22;12634;50.852;5.676;2023-10-08T01:38:29;15.60;99.90
24468;DHT22;12634;50.852;5.676;2023-10-08T01:40:57;15.60;99.90
24468;DHT22;12634;50.852;5.676;2023-10-08T01:43:29;15.60;99.90
24468;DHT22;12634;50.852;5.676;2023-10-08T01:45:56;15.50;99.90
24468;DHT22;12634;50.852;5.676;2023-10-08T01:48:24;15.50;99.90
24468;DHT22;12634;50.852;5.676;2023-10-08T01:50:54;15.50;99.90
24468;DHT22;12634;50.852;5.676;2023-10-08T01:53:28;15.60;99.90
24468;DHT22;12634;50.852;5.676;2023-10-08T01:55:57;15.50;99.90
24468;DHT22;12634;50.852;5.676;2023-10-08T01:58:24;15.60;99.90
24468;DHT22;12634;50.852;5.676;2023-10-08T02:00:53;15.50;99.90
24468;DHT22;12634;50.852;5.676;2023-10-08T02:03:24;15.50;99.90
24468;DHT22;12634;50.852;5.676;2023-10-08T02:05:53;15.40;99.90
24468;DHT22;12634;50.852;5.676;2023-10-08T02:08:24;15.40;99.90
24468;DHT22;12634;50.852;5.676;2023-10-08T02:10:54;15.30;99.90
24468;DHT22;12634;50.852;5.676;2023-10-08T02:13:22;15.40;99.90
24468;DHT22;12634;50.852;5.676;2023-10-08T02:15:50;15.60;99.90
24468;DHT22;12634;50.852;5.676;2023-10-08T02:18:18;15.50;99.90
24468;DHT22;12634;50.852;5.676;2023-10-08T02:20:45;15.40;99.90
24468;DHT22;12634;50.852;5.676;2023-10-08T02:23:14;15.40;99.90
24468;DHT22;12634;50.852;5.676;2023-10-08T02:25:41;15.40;99.90
24468;DHT22;12634;50.852;5.676;2023-10-08T02:28:11;15.50;99.90
24468;DHT22;12634;50.852;5.676;2023-10-08T02:30:41;15.60;99.90
24468;DHT22;12634;50.852;5.676;2023-10-08T02:33:08;15.50;99.90
24468;DHT22;12634;50.852;5.676;2023-10-08T02:35:40;15.60;99.90
24468;DHT22;12634;50.852;5.676;2023-10-08T02:38:09;15.50;99.90
24468;DHT22;12634;50.852;5.676;2023-10-08T02:40:37;15.50;99.90
24468;DHT22;12634;50.852;5.676;2023-10-08T02:43:12;15.60;99.90
24468;DHT22;12634;50.852;5.676;2023-10-08T02:45:41;15.70;99.90
24468;DHT22;12634;50.852;5.676;2023-10-08T02:48:13;15.70;99.90
24468;DHT22;12634;50.852;5.676;2023-10-08T02:50:41;15.80;99.90
24468;DHT22;12634;50.852;5.676;2023-10-08T02:53:10;15.70;99.90
24468;DHT22;12634;50.852;5.676;2023-10-08T02:55:38;15.80;99.90
24468;DHT22;12634;50.852;5.676;2023-10-08T02:58:11;15.80;99.90
24468;DHT22;12634;50.852;5.676;2023-10-08T03:00:40;15.80;99.90
24468;DHT22;12634;50.852;5.676;2023-10-08T03:03:08;15.70;99.90
24468;DHT22;12634;50.852;5.676;2023-10-08T03:05:43;15.70;99.90
24468;DHT22;12634;50.852;5.676;2023-10-08T03:08:12;15.60;99.90
24468;DHT22;12634;50.852;5.676;2023-10-08T03:10:39;15.60;99.90
24468;DHT22;12634;50.852;5.676;2023-10-08T03:13:07;15.60;99.90
24468;DHT22;12634;50.852;5.676;2023-10-08T03:15:40;15.70;99.90
24468;DHT22;12634;50.852;5.676;2023-10-08T03:18:23;15.70;99.90
24468;DHT22;12634;50.852;5.676;2023-10-08T03:20:50;15.70;99.90
24468;DHT22;12634;50.852;5.676;2023-10-08T03:23:19;15.60;99.90
24468;DHT22;12634;50.852;5.676;2023-10-08T03:26:00;15.60;99.90
24468;DHT22;12634;50.852;5.676;2023-10-08T03:28:35;15.50;99.90
24468;DHT22;12634;50.852;5.676;2023-10-08T03:31:04;15.60;99.90
24468;DHT22;12634;50.852;5.676;2023-10-08T03:33:38;15.60;99.90
24468;DHT22;12634;50.852;5.676;2023-10-08T03:36:07;15.60;99.90
24468;DHT22;12634;50.852;5.676;2023-10-08T03:38:40;15.50;99.90
24468;DHT22;12634;50.852;5.676;2023-10-08T03:41:17;15.40;99.90
24468;DHT22;12634;50.852;5.676;2023-10-08T03:43:46;15.50;99.90
24468;DHT22;12634;50.852;5.676;2023-10-08T03:46:29;15.50;99.90
24468;DHT22;12634;50.852;5.676;2023-10-08T03:48:56;15.40;99.90
24468;DHT22;12634;50.852;5.676;2023-10-08T03:51:30;15.30;99.90
24468;DHT22;12634;50.852;5.676;2023-10-08T03:54:05;15.30;99.90
24468;DHT22;12634;50.852;5.676;2023-10-08T03:56:52;15.20;99.90
24468;DHT22;12634;50.852;5.676;2023-10-08T03:59:19;15.20;99.90
24468;DHT22;12634;50.852;5.676;2023-10-08T04:01:59;15.20;99.90
24468;DHT22;12634;50.852;5.676;2023-10-08T04:04:34;15.20;99.90
24468;DHT22;12634;50.852;5.676;2023-10-08T04:07:16;15.10;99.90
24468;DHT22;12634;50.852;5.676;2023-10-08T04:09:55;15.10;99.90
24468;DHT22;12634;50.852;5.676;2023-10-08T04:12:46;15.00;99.90
24468;DHT22;12634;50.852;5.676;2023-10-08T04:15:17;15.00;99.90
24468;DHT22;12634;50.852;5.676;2023-10-08T04:17:46;15.00;99.90
24468;DHT22;12634;50.852;5.676;2023-10-08T04:20:17;14.90;99.90
24468;DHT22;12634;50.852;5.676;2023-10-08T04:22:59;14.90;99.90
24468;DHT22;12634;50.852;5.676;2023-10-08T04:25:27;14.90;99.90
24468;DHT22;12634;50.852;5.676;2023-10-08T04:27:55;14.80;99.90
24468;DHT22;12634;50.852;5.676;2023-10-08T04:30:25;14.70;99.90
24468;DHT22;12634;50.852;5.676;2023-10-08T04:33:00;14.60;99.90
24468;DHT22;12634;50.852;5.676;2023-10-08T04:35:33;14.70;99.90
24468;DHT22;12634;50.852;5.676;2023-10-08T04:38:04;14.70;99.90
24468;DHT22;12634;50.852;5.676;2023-10-08T04:40:34;14.70;99.90
24468;DHT22;12634;50.852;5.676;2023-10-08T04:43:07;14.70;99.90
24468;DHT22;12634;50.852;5.676;2023-10-08T04:45:36;14.70;99.90
24468;DHT22;12634;50.852;5.676;2023-10-08T04:48:06;14.80;99.90
24468;DHT22;12634;50.852;5.676;2023-10-08T04:50:36;14.80;99.90
24468;DHT22;12634;50.852;5.676;2023-10-08T04:53:03;14.70;99.90
24468;DHT22;12634;50.852;5.676;2023-10-08T04:55:34;14.60;99.90
24468;DHT22;12634;50.852;5.676;2023-10-08T04:58:04;14.60;99.90
24468;DHT22;12634;50.852;5.676;2023-10-08T05:00:38;14.60;99.90
24468;DHT22;12634;50.852;5.676;2023-10-08T05:03:20;14.50;99.90
24468;DHT22;12634;50.852;5.676;2023-10-08T05:05:49;14.50;99.90
24468;DHT22;12634;50.852;5.676;2023-10-08T05:08:33;14.30;99.90
24468;DHT22;12634;50.852;5.676;2023-10-08T05:11:13;14.20;99.90
24468;DHT22;12634;50.852;5.676;2023-10-08T05:14:03;14.20;99.90
24468;DHT22;12634;50.852;5.676;2023-10-08T05:16:32;14.00;99.90
24468;DHT22;12634;50.852;5.676;2023-10-08T05:19:27;13.90;99.90
24468;DHT22;12634;50.852;5.676;2023-10-08T05:22:13;13.90;99.90
24468;DHT22;12634;50.852;5.676;2023-10-08T05:25:00;13.90;99.90
24468;DHT22;12634;50.852;5.676;2023-10-08T05:27:34;13.90;99.90
24468;DHT22;12634;50.852;5.676;2023-10-08T05:30:23;13.90;99.90
24468;DHT22;12634;50.852;5.676;2023-10-08T05:32:55;13.90;99.90
24468;DHT22;12634;50.852;5.676;2023-10-08T05:35:52;13.90;99.90
24468;DHT22;12634;50.852;5.676;2023-10-08T05:38:28;13.80;99.90
24468;DHT22;12634;50.852;5.676;2023-10-08T05:41:14;13.60;99.90
24468;DHT22;12634;50.852;5.676;2023-10-08T05:44:05;13.60;99.90
24468;DHT22;12634;50.852;5.676;2023-10-08T05:46:49;13.50;99.90
24468;DHT22;12634;50.852;5.676;2023-10-08T05:49:54;13.60;99.90
24468;DHT22;12634;50.852;5.676;2023-10-08T05:52:43;13.50;99.90
24468;DHT22;12634;50.852;5.676;2023-10-08T05:55:17;13.60;99.90
24468;DHT22;12634;50.852;5.676;2023-10-08T05:57:52;13.60;99.90
24468;DHT22;12634;50.852;5.676;2023-10-08T06:00:28;13.60;99.90
24468;DHT22;12634;50.852;5.676;2023-10-08T06:03:28;13.50;99.90
24468;DHT22;12634;50.852;5.676;2023-10-08T06:06:14;13.50;99.90
24468;DHT22;12634;50.852;5.676;2023-10-08T06:09:04;13.50;99.90
24468;DHT22;12634;50.852;5.676;2023-10-08T06:12:01;13.60;99.90
24468;DHT22;12634;50.852;5.676;2023-10-08T06:14:45;13.60;99.90
24468;DHT22;12634;50.852;5.676;2023-10-08T06:17:29;13.50;99.90
24468;DHT22;12634;50.852;5.676;2023-10-08T06:20:23;13.50;99.90
24468;DHT22;12634;50.852;5.676;2023-10-08T06:22:54;13.60;99.90
24468;DHT22;12634;50.852;5.676;2023-10-08T06:25:30;13.60;99.90
24468;DHT22;12634;50.852;5.676;2023-10-08T06:27:57;13.60;99.90
24468;DHT22;12634;50.852;5.676;2023-10-08T06:30:25;13.70;99.90
24468;DHT22;12634;50.852;5.676;2023-10-08T06:32:56;13.70;99.90
24468;DHT22;12634;50.852;5.676;2023-10-08T06:35:23;13.70;99.90
24468;DHT22;12634;50.852;5.676;2023-10-08T06:37:54;13.70;99.90
24468;DHT22;12634;50.852;5.676;2023-10-08T06:40:25;13.70;99.90
24468;DHT22;12634;50.852;5.676;2023-10-08T06:43:16;13.70;99.90
24468;DHT22;12634;50.852;5.676;2023-10-08T06:45:48;13.70;99.90
24468;DHT22;12634;50.852;5.676;2023-10-08T06:48:18;13.80;99.90
24468;DHT22;12634;50.852;5.676;2023-10-08T06:50:48;13.90;99.90
24468;DHT22;12634;50.852;5.676;2023-10-08T06:53:15;14.10;99.90
24468;DHT22;12634;50.852;5.676;2023-10-08T06:55:44;14.30;99.90
24468;DHT22;12634;50.852;5.676;2023-10-08T06:58:13;14.50;99.90
24468;DHT22;12634;50.852;5.676;2023-10-08T07:00:44;14.70;99.90
24468;DHT22;12634;50.852;5.676;2023-10-08T07:03:15;14.90;99.90
24468;DHT22;12634;50.852;5.676;2023-10-08T07:05:44;15.10;99.90
24468;DHT22;12634;50.852;5.676;2023-10-08T07:08:21;15.30;99.90
24468;DHT22;12634;50.852;5.676;2023-10-08T07:10:49;15.60;99.90
24468;DHT22;12634;50.852;5.676;2023-10-08T07:13:17;15.70;99.90
24468;DHT22;12634;50.852;5.676;2023-10-08T07:15:46;15.70;99.90
24468;DHT22;12634;50.852;5.676;2023-10-08T07:18:15;15.70;99.90
24468;DHT22;12634;50.852;5.676;2023-10-08T07:20:51;15.50;99.90
24468;DHT22;12634;50.852;5.676;2023-10-08T07:23:21;15.50;99.90
24468;DHT22;12634;50.852;5.676;2023-10-08T07:25:53;15.40;99.90
24468;DHT22;12634;50.852;5.676;2023-10-08T07:28:24;15.30;99.90
24468;DHT22;12634;50.852;5.676;2023-10-08T07:30:54;15.30;99.90
24468;DHT22;12634;50.852;5.676;2023-10-08T07:33:21;15.40;99.90
24468;DHT22;12634;50.852;5.676;2023-10-08T07:35:51;15.50;99.90
24468;DHT22;12634;50.852;5.676;2023-10-08T07:38:25;15.70;99.90
24468;DHT22;12634;50.852;5.676;2023-10-08T07:40:55;15.90;99.90
24468;DHT22;12634;50.852;5.676;2023-10-08T07:43:23;16.10;99.90
24468;DHT22;12634;50.852;5.676;2023-10-08T07:45:50;16.20;99.90
24468;DHT22;12634;50.852;5.676;2023-10-08T07:48:21;16.30;99.90
24468;DHT22;12634;50.852;5.676;2023-10-08T07:50:55;16.60;99.90
24468;DHT22;12634;50.852;5.676;2023-10-08T07:53:23;16.80;99.90
24468;DHT22;12634;50.852;5.676;2023-10-08T07:55:51;17.00;99.90
24468;DHT22;12634;50.852;5.676;2023-10-08T07:58:18;17.00;99.90
24468;DHT22;12634;50.852;5.676;2023-10-08T08:00:46;17.10;99.90
24468;DHT22;12634;50.852;5.676;2023-10-08T08:03:21;16.90;99.90
24468;DHT22;12634;50.852;5.676;2023-10-08T08:05:50;17.10;99.90
24468;DHT22;12634;50.852;5.676;2023-10-08T08:08:20;17.20;99.90
24468;DHT22;12634;50.852;5.676;2023-10-08T08:10:49;17.30;99.90
24468;DHT22;12634;50.852;5.676;2023-10-08T08:13:24;17.50;99.90
24468;DHT22;12634;50.852;5.676;2023-10-08T08:15:55;17.60;99.90
24468;DHT22;12634;50.852;5.676;2023-10-08T08:18:26;17.50;99.90
24468;DHT22;12634;50.852;5.676;2023-10-08T08:21:00;17.80;99.90
24468;DHT22;12634;50.852;5.676;2023-10-08T08:23:29;18.00;99.90
24468;DHT22;12634;50.852;5.676;2023-10-08T08:25:57;18.20;99.90
24468;DHT22;12634;50.852;5.676;2023-10-08T08:28:38;18.20;99.90
24468;DHT22;12634;50.852;5.676;2023-10-08T08:31:06;18.10;99.90
24468;DHT22;12634;50.852;5.676;2023-10-08T08:33:42;18.10;99.90
24468;DHT22;12634;50.852;5.676;2023-10-08T08:36:26;18.20;99.90
24468;DHT22;12634;50.852;5.676;2023-10-08T08:38:54;18.50;99.90
24468;DHT22;12634;50.852;5.676;2023-10-08T08:41:22;19.00;99.90
24468;DHT22;12634;50.852;5.676;2023-10-08T08:43:50;19.40;99.90
24468;DHT22;12634;50.852;5.676;2023-10-08T08:46:34;19.60;99.90
24468;DHT22;12634;50.852;5.676;2023-10-08T08:49:04;19.70;99.90
24468;DHT22;12634;50.852;5.676;2023-10-08T08:51:34;20.00;99.90
24468;DHT22;12634;50.852;5.676;2023-10-08T08:54:02;20.00;99.90
24468;DHT22;12634;50.852;5.676;2023-10-08T08:56:33;20.10;99.90
24468;DHT22;12634;50.852;5.676;2023-10-08T08:59:03;19.70;99.90
24468;DHT22;12634;50.852;5.676;2023-10-08T09:01:31;20.00;99.90
24468;DHT22;12634;50.852;5.676;2023-10-08T09:03:59;20.40;99.90
24468;DHT22;12634;50.852;5.676;2023-10-08T09:06:32;20.10;99.90
24468;DHT22;12634;50.852;5.676;2023-10-08T09:09:00;20.40;99.90
24468;DHT22;12634;50.852;5.676;2023-10-08T09:11:47;20.30;99.90
24468;DHT22;12634;50.852;5.676;2023-10-08T09:14:19;20.70;99.90
24468;DHT22;12634;50.852;5.676;2023-10-08T09:16:47;21.40;99.90
24468;DHT22;12634;50.852;5.676;2023-10-08T09:19:14;21.10;99.90
24468;DHT22;12634;50.852;5.676;2023-10-08T09:22:00;21.10;99.90
24468;DHT22;12634;50.852;5.676;2023-10-08T09:24:29;21.20;99.90
24468;DHT22;12634;50.852;5.676;2023-10-08T09:26:56;21.20;99.90
24468;DHT22;12634;50.852;5.676;2023-10-08T09:29:24;20.80;99.90
24468;DHT22;12634;50.852;5.676;2023-10-08T09:31:53;21.40;99.90
24468;DHT22;12634;50.852;5.676;2023-10-08T09:34:22;21.60;99.90
24468;DHT22;12634;50.852;5.676;2023-10-08T09:36:56;21.90;99.90
24468;DHT22;12634;50.852;5.676;2023-10-08T09:39:26;21.70;99.90
24468;DHT22;12634;50.852;5.676;2023-10-08T09:41:55;21.40;99.90
24468;DHT22;12634;50.852;5.676;2023-10-08T09:44:23;21.30;99.90
24468;DHT22;12634;50.852;5.676;2023-10-08T09:46:53;21.20;99.90
24468;DHT22;12634;50.852;5.676;2023-10-08T09:49:30;21.30;99.90
24468;DHT22;12634;50.852;5.676;2023-10-08T09:52:02;21.60;99.90
24468;DHT22;12634;50.852;5.676;2023-10-08T09:54:34;21.20;99.90
24468;DHT22;12634;50.852;5.676;2023-10-08T09:57:06;21.80;99.90
24468;DHT22;12634;50.852;5.676;2023-10-08T09:59:34;21.80;99.90
24468;DHT22;12634;50.852;5.676;2023-10-08T10:02:04;22.60;99.90
24468;DHT22;12634;50.852;5.676;2023-10-08T10:04:35;23.00;99.90
24468;DHT22;12634;50.852;5.676;2023-10-08T10:07:10;22.60;99.90
24468;DHT22;12634;50.852;5.676;2023-10-08T10:09:39;23.00;99.90
24468;DHT22;12634;50.852;5.676;2023-10-08T10:12:11;23.00;99.90
24468;DHT22;12634;50.852;5.676;2023-10-08T10:14:43;22.10;99.90
24468;DHT22;12634;50.852;5.676;2023-10-08T10:17:17;23.00;99.90
24468;DHT22;12634;50.852;5.676;2023-10-08T10:19:50;23.30;99.90
24468;DHT22;12634;50.852;5.676;2023-10-08T10:22:31;22.40;99.90
24468;DHT22;12634;50.852;5.676;2023-10-08T10:24:59;22.70;99.90
24468;DHT22;12634;50.852;5.676;2023-10-08T10:27:30;22.50;99.90
24468;DHT22;12634;50.852;5.676;2023-10-08T10:30:02;22.40;99.90
24468;DHT22;12634;50.852;5.676;2023-10-08T10:32:34;22.70;99.90
24468;DHT22;12634;50.852;5.676;2023-10-08T10:35:01;23.00;99.90
24468;DHT22;12634;50.852;5.676;2023-10-08T10:37:32;23.30;99.90
24468;DHT22;12634;50.852;5.676;2023-10-08T10:40:09;23.80;99.90
24468;DHT22;12634;50.852;5.676;2023-10-08T10:42:38;24.20;99.90
24468;DHT22;12634;50.852;5.676;2023-10-08T10:45:14;24.30;99.90
24468;DHT22;12634;50.852;5.676;2023-10-08T10:48:02;24.10;99.90
24468;DHT22;12634;50.852;5.676;2023-10-08T10:50:39;23.70;99.90
24468;DHT22;12634;50.852;5.676;2023-10-08T10:53:17;24.00;99.90
24468;DHT22;12634;50.852;5.676;2023-10-08T10:55:45;23.40;99.90
24468;DHT22;12634;50.852;5.676;2023-10-08T10:58:24;24.40;99.90
24468;DHT22;12634;50.852;5.676;2023-10-08T11:00:51;24.70;99.90
24468;DHT22;12634;50.852;5.676;2023-10-08T11:03:25;24.40;99.90
24468;DHT22;12634;50.852;5.676;2023-10-08T11:05:57;24.70;99.90
24468;DHT22;12634;50.852;5.676;2023-10-08T11:08:33;25.00;99.90
24468;DHT22;12634;50.852;5.676;2023-10-08T11:11:03;23.00;99.90
24468;DHT22;12634;50.852;5.676;2023-10-08T11:13:35;22.90;99.90
24468;DHT22;12634;50.852;5.676;2023-10-08T11:16:07;22.60;99.90
24468;DHT22;12634;50.852;5.676;2023-10-08T11:18:41;23.20;99.90
24468;DHT22;12634;50.852;5.676;2023-10-08T11:21:08;23.30;99.90
24468;DHT22;12634;50.852;5.676;2023-10-08T11:23:46;23.20;99.90
24468;DHT22;12634;50.852;5.676;2023-10-08T11:26:19;23.30;99.90
24468;DHT22;12634;50.852;5.676;2023-10-08T11:28:47;23.50;99.90
24468;DHT22;12634;50.852;5.676;2023-10-08T11:31:17;23.20;99.90
24468;DHT22;12634;50.852;5.676;2023-10-08T11:33:46;23.90;99.90
24468;DHT22;12634;50.852;5.676;2023-10-08T11:36:20;23.50;99.90
24468;DHT22;12634;50.852;5.676;2023-10-08T11:38:55;23.00;99.90
24468;DHT22;12634;50.852;5.676;2023-10-08T11:41:28;22.90;99.90
24468;DHT22;12634;50.852;5.676;2023-10-08T11:43:57;22.20;99.90
24468;DHT22;12634;50.852;5.676;2023-10-08T11:46:25;23.10;99.90
24468;DHT22;12634;50.852;5.676;2023-10-08T11:48:54;23.80;99.90
24468;DHT22;12634;50.852;5.676;2023-10-08T11:51:26;23.50;99.90
24468;DHT22;12634;50.852;5.676;2023-10-08T11:53:55;23.30;99.90
24468;DHT22;12634;50.852;5.676;2023-10-08T11:56:22;23.40;99.90
24468;DHT22;12634;50.852;5.676;2023-10-08T11:58:49;23.90;99.90
24468;DHT22;12634;50.852;5.676;2023-10-08T12:01:18;23.80;99.90
24468;DHT22;12634;50.852;5.676;2023-10-08T12:03:46;23.20;99.90
24468;DHT22;12634;50.852;5.676;2023-10-08T12:06:16;24.00;99.90
24468;DHT22;12634;50.852;5.676;2023-10-08T12:08:45;24.50;99.90
24468;DHT22;12634;50.852;5.676;2023-10-08T12:11:15;24.70;99.90
24468;DHT22;12634;50.852;5.676;2023-10-08T12:13:43;24.50;99.90
24468;DHT22;12634;50.852;5.676;2023-10-08T12:16:14;24.40;99.90
24468;DHT22;12634;50.852;5.676;2023-10-08T12:18:52;24.50;99.90
24468;DHT22;12634;50.852;5.676;2023-10-08T12:21:24;25.00;99.90
24468;DHT22;12634;50.852;5.676;2023-10-08T12:23:51;24.90;99.90
24468;DHT22;12634;50.852;5.676;2023-10-08T12:26:22;24.90;99.90
24468;DHT22;12634;50.852;5.676;2023-10-08T12:28:49;24.20;99.90
24468;DHT22;12634;50.852;5.676;2023-10-08T12:31:18;24.20;99.90
24468;DHT22;12634;50.852;5.676;2023-10-08T12:33:48;23.80;99.90
24468;DHT22;12634;50.852;5.676;2023-10-08T12:36:19;24.40;99.90
24468;DHT22;12634;50.852;5.676;2023-10-08T12:38:49;24.90;99.90
24468;DHT22;12634;50.852;5.676;2023-10-08T12:41:24;25.70;99.90
24468;DHT22;12634;50.852;5.676;2023-10-08T12:43:53;26.20;99.90
24468;DHT22;12634;50.852;5.676;2023-10-08T12:46:21;26.40;99.90
24468;DHT22;12634;50.852;5.676;2023-10-08T12:48:51;25.70;99.90
24468;DHT22;12634;50.852;5.676;2023-10-08T12:51:20;25.10;99.90
24468;DHT22;12634;50.852;5.676;2023-10-08T12:53:49;24.90;99.90
24468;DHT22;12634;50.852;5.676;2023-10-08T12:56:31;25.40;99.90
24468;DHT22;12634;50.852;5.676;2023-10-08T12:59:05;24.30;99.90
24468;DHT22;12634;50.852;5.676;2023-10-08T13:01:33;24.10;99.90
24468;DHT22;12634;50.852;5.676;2023-10-08T13:04:02;24.70;99.90
24468;DHT22;12634;50.852;5.676;2023-10-08T13:06:34;25.40;99.90
24468;DHT22;12634;50.852;5.676;2023-10-08T13:09:04;25.20;99.90
24468;DHT22;12634;50.852;5.676;2023-10-08T13:11:39;25.80;99.90
24468;DHT22;12634;50.852;5.676;2023-10-08T13:14:08;25.20;99.90
24468;DHT22;12634;50.852;5.676;2023-10-08T13:16:37;24.90;99.90
24468;DHT22;12634;50.852;5.676;2023-10-08T13:19:04;25.30;99.90
24468;DHT22;12634;50.852;5.676;2023-10-08T13:21:34;24.60;99.90
24468;DHT22;12634;50.852;5.676;2023-10-08T13:24:03;24.60;99.90
24468;DHT22;12634;50.852;5.676;2023-10-08T13:26:35;24.60;99.90
24468;DHT22;12634;50.852;5.676;2023-10-08T13:29:05;24.80;99.90
24468;DHT22;12634;50.852;5.676;2023-10-08T13:31:34;25.10;99.90
24468;DHT22;12634;50.852;5.676;2023-10-08T13:34:03;25.30;99.90
24468;DHT22;12634;50.852;5.676;2023-10-08T13:36:34;25.20;99.90
24468;DHT22;12634;50.852;5.676;2023-10-08T13:39:04;24.70;99.90
24468;DHT22;12634;50.852;5.676;2023-10-08T13:41:35;24.50;99.90
24468;DHT22;12634;50.852;5.676;2023-10-08T13:44:05;24.90;99.90
24468;DHT22;12634;50.852;5.676;2023-10-08T13:46:33;25.50;99.90
24468;DHT22;12634;50.852;5.676;2023-10-08T13:49:02;25.30;99.90
24468;DHT22;12634;50.852;5.676;2023-10-08T13:51:31;25.70;99.90
24468;DHT22;12634;50.852;5.676;2023-10-08T13:54:01;25.90;99.90
24468;DHT22;12634;50.852;5.676;2023-10-08T13:56:32;25.70;99.90
24468;DHT22;12634;50.852;5.676;2023-10-08T13:59:00;25.80;99.90
24468;DHT22;12634;50.852;5.676;2023-10-08T14:01:40;26.40;99.90
24468;DHT22;12634;50.852;5.676;2023-10-08T14:04:09;26.00;99.90
24468;DHT22;12634;50.852;5.676;2023-10-08T14:06:39;25.80;99.90
24468;DHT22;12634;50.852;5.676;2023-10-08T14:09:08;25.70;99.90
24468;DHT22;12634;50.852;5.676;2023-10-08T14:11:38;25.70;99.90
24468;DHT22;12634;50.852;5.676;2023-10-08T14:14:05;25.10;99.90
24468;DHT22;12634;50.852;5.676;2023-10-08T14:16:38;25.10;99.90
24468;DHT22;12634;50.852;5.676;2023-10-08T14:19:08;25.00;99.90
24468;DHT22;12634;50.852;5.676;2023-10-08T14:21:38;24.80;99.90
24468;DHT22;12634;50.852;5.676;2023-10-08T14:24:15;25.00;99.90
24468;DHT22;12634;50.852;5.676;2023-10-08T14:26:43;24.90;99.90
24468;DHT22;12634;50.852;5.676;2023-10-08T14:29:12;25.00;99.90
24468;DHT22;12634;50.852;5.676;2023-10-08T14:31:42;24.90;99.90
24468;DHT22;12634;50.852;5.676;2023-10-08T14:34:14;25.10;99.90
24468;DHT22;12634;50.852;5.676;2023-10-08T14:37:08;25.30;99.90
24468;DHT22;12634;50.852;5.676;2023-10-08T14:39:53;24.60;99.90
24468;DHT22;12634;50.852;5.676;2023-10-08T14:42:52;25.00;99.90
24468;DHT22;12634;50.852;5.676;2023-10-08T14:45:23;25.10;99.90
24468;DHT22;12634;50.852;5.676;2023-10-08T14:47:54;24.90;99.90
24468;DHT22;12634;50.852;5.676;2023-10-08T14:50:22;24.80;99.90
24468;DHT22;12634;50.852;5.676;2023-10-08T14:52:49;24.70;99.90
24468;DHT22;12634;50.852;5.676;2023-10-08T14:55:16;24.40;99.90
24468;DHT22;12634;50.852;5.676;2023-10-08T14:57:47;24.20;99.90
24468;DHT22;12634;50.852;5.676;2023-10-08T15:00:17;24.10;99.90
24468;DHT22;12634;50.852;5.676;2023-10-08T15:02:51;24.10;99.90
24468;DHT22;12634;50.852;5.676;2023-10-08T15:05:21;24.10;99.90
24468;DHT22;12634;50.852;5.676;2023-10-08T15:07:49;24.30;99.90
24468;DHT22;12634;50.852;5.676;2023-10-08T15:10:17;24.20;99.90
24468;DHT22;12634;50.852;5.676;2023-10-08T15:12:44;24.10;99.90
24468;DHT22;12634;50.852;5.676;2023-10-08T15:15:11;24.30;99.90
24468;DHT22;12634;50.852;5.676;2023-10-08T15:17:41;24.70;99.90
24468;DHT22;12634;50.852;5.676;2023-10-08T15:20:10;24.80;99.90
24468;DHT22;12634;50.852;5.676;2023-10-08T15:22:43;24.60;99.90
24468;DHT22;12634;50.852;5.676;2023-10-08T15:25:11;24.50;99.90
24468;DHT22;12634;50.852;5.676;2023-10-08T15:27:38;24.10;99.90
24468;DHT22;12634;50.852;5.676;2023-10-08T15:30:07;24.00;99.90
24468;DHT22;12634;50.852;5.676;2023-10-08T15:32:37;24.00;99.90
24468;DHT22;12634;50.852;5.676;2023-10-08T15:35:06;24.10;99.90
24468;DHT22;12634;50.852;5.676;2023-10-08T15:37:35;24.00;99.90
24468;DHT22;12634;50.852;5.676;2023-10-08T15:40:06;24.00;99.90
24468;DHT22;12634;50.852;5.676;2023-10-08T15:42:35;24.00;99.90
24468;DHT22;12634;50.852;5.676;2023-10-08T15:45:03;24.00;99.90
24468;DHT22;12634;50.852;5.676;2023-10-08T15:47:30;23.50;99.90
24468;DHT22;12634;50.852;5.676;2023-10-08T15:49:58;23.30;99.90
24468;DHT22;12634;50.852;5.676;2023-10-08T15:52:26;23.20;99.90
24468;DHT22;12634;50.852;5.676;2023-10-08T15:54:53;23.10;99.90
24468;DHT22;12634;50.852;5.676;2023-10-08T15:57:22;23.00;99.90
24468;DHT22;12634;50.852;5.676;2023-10-08T15:59:50;22.90;99.90
24468;DHT22;12634;50.852;5.676;2023-10-08T16:02:18;22.80;99.90